createdAt,value
2018-04-07T00:01:17.515Z,0
2018-04-07T00:02:18.091Z,0
2018-04-07T00:03:18.649Z,0
2018-04-07T00:04:19.190Z,0
2018-04-07T00:05:19.739Z,0
2018-04-07T00:06:20.279Z,0
2018-04-07T00:07:20.831Z,0
2018-04-07T00:08:21.382Z,0
2018-04-07T00:09:21.927Z,0
2018-04-07T00:10:22.478Z,0
2018-04-07T00:11:23.017Z,0
2018-04-07T00:12:23.562Z,0
2018-04-07T00:13:24.112Z,0
2018-04-07T00:14:24.668Z,0
2018-04-07T00:15:25.215Z,0
2018-04-07T00:16:25.758Z,0
2018-04-07T00:17:26.304Z,0
2018-04-07T00:18:26.851Z,0
2018-04-07T00:19:27.398Z,0
2018-04-07T00:20:27.942Z,0
2018-04-07T00:21:28.488Z,0
2018-04-07T00:22:29.028Z,0
2018-04-07T00:23:29.583Z,0
2018-04-07T00:24:30.123Z,0
2018-04-07T00:25:30.672Z,0
2018-04-07T00:26:31.223Z,0
2018-04-07T00:27:31.762Z,0
2018-04-07T00:28:32.316Z,0
2018-04-07T00:29:32.859Z,0
2018-04-07T00:30:33.405Z,0
2018-04-07T00:31:33.950Z,0
2018-04-07T00:32:34.494Z,0
2018-04-07T00:33:35.032Z,0
2018-04-07T00:34:35.573Z,0
2018-04-07T00:35:36.119Z,0
2018-04-07T00:36:36.662Z,0
2018-04-07T00:37:37.214Z,0
2018-04-07T00:38:37.759Z,0
2018-04-07T00:39:38.298Z,0
2018-04-07T00:40:38.853Z,0
2018-04-07T00:41:39.512Z,0
2018-04-07T00:42:40.061Z,0
2018-04-07T00:43:40.598Z,0
2018-04-07T00:44:41.148Z,0
2018-04-07T00:45:41.699Z,0
2018-04-07T00:46:42.235Z,0
2018-04-07T00:47:42.781Z,0
2018-04-07T00:48:43.322Z,0
2018-04-07T00:49:43.867Z,0
2018-04-07T00:50:44.409Z,0
2018-04-07T00:51:44.951Z,0
2018-04-07T00:52:45.494Z,0
2018-04-07T00:53:46.034Z,0
2018-04-07T00:54:46.581Z,0
2018-04-07T00:55:47.130Z,0
2018-04-07T00:56:47.667Z,0
2018-04-07T00:57:48.219Z,0
2018-04-07T00:58:48.760Z,0
2018-04-07T00:59:49.304Z,0
2018-04-07T01:00:49.855Z,0
2018-04-07T01:01:50.396Z,0
2018-04-07T01:02:50.944Z,0
2018-04-07T01:03:51.491Z,0
2018-04-07T01:04:52.038Z,0
2018-04-07T01:05:52.590Z,0
2018-04-07T01:06:53.135Z,0
2018-04-07T01:07:53.685Z,0
2018-04-07T01:08:54.228Z,0
2018-04-07T01:09:54.777Z,0
2018-04-07T01:10:55.331Z,0
2018-04-07T01:11:55.871Z,0
2018-04-07T01:12:56.422Z,0
2018-04-07T01:13:56.963Z,0
2018-04-07T01:14:57.509Z,0
2018-04-07T01:15:58.053Z,0
2018-04-07T01:16:58.607Z,0
2018-04-07T01:17:59.157Z,0
2018-04-07T01:18:59.715Z,0
2018-04-07T01:20:00.249Z,0
2018-04-07T01:21:00.791Z,0
2018-04-07T01:22:01.331Z,0
2018-04-07T01:23:01.884Z,0
2018-04-07T01:24:02.434Z,0
2018-04-07T01:25:02.971Z,0
2018-04-07T01:26:03.522Z,0
2018-04-07T01:27:04.064Z,0
2018-04-07T01:28:04.606Z,0
2018-04-07T01:29:05.156Z,0
2018-04-07T01:30:05.703Z,0
2018-04-07T01:31:06.242Z,0
2018-04-07T01:32:06.776Z,0
2018-04-07T01:33:07.324Z,0
2018-04-07T01:34:07.877Z,0
2018-04-07T01:35:08.418Z,0
2018-04-07T01:36:08.967Z,0
2018-04-07T01:37:09.520Z,0
2018-04-07T01:38:10.054Z,0
2018-04-07T01:39:10.602Z,0
2018-04-07T01:40:11.154Z,0
2018-04-07T01:41:11.694Z,0
2018-04-07T01:42:12.240Z,0
2018-04-07T01:43:12.787Z,0
2018-04-07T01:44:13.340Z,0
2018-04-07T01:45:13.880Z,0
2018-04-07T01:46:14.428Z,0
2018-04-07T01:47:14.971Z,0
2018-04-07T01:48:15.521Z,0
2018-04-07T01:49:16.058Z,0
2018-04-07T01:50:16.612Z,0
2018-04-07T01:51:17.148Z,0
2018-04-07T01:52:17.691Z,0
2018-04-07T01:53:18.241Z,0
2018-04-07T01:54:18.789Z,0
2018-04-07T01:55:19.328Z,0
2018-04-07T01:56:19.876Z,0
2018-04-07T01:57:20.412Z,0
2018-04-07T01:58:20.956Z,0
2018-04-07T01:59:21.504Z,0
2018-04-07T02:00:22.055Z,0
2018-04-07T02:01:22.599Z,0
2018-04-07T02:02:23.144Z,0
2018-04-07T02:03:23.682Z,0
2018-04-07T02:04:24.226Z,0
2018-04-07T02:05:24.771Z,0
2018-04-07T02:06:25.315Z,0
2018-04-07T02:07:25.855Z,0
2018-04-07T02:08:26.402Z,0
2018-04-07T02:09:26.951Z,0
2018-04-07T02:10:27.495Z,0
2018-04-07T02:11:28.040Z,0
2018-04-07T02:12:28.586Z,0
2018-04-07T02:13:29.132Z,0
2018-04-07T02:14:29.679Z,0
2018-04-07T02:15:30.228Z,0
2018-04-07T02:16:30.765Z,0
2018-04-07T02:17:31.317Z,0
2018-04-07T02:18:31.857Z,0
2018-04-07T02:19:32.408Z,0
2018-04-07T02:20:32.960Z,0
2018-04-07T02:21:33.502Z,0
2018-04-07T02:22:34.046Z,0
2018-04-07T02:23:34.594Z,0
2018-04-07T02:24:35.140Z,0
2018-04-07T02:25:35.681Z,0
2018-04-07T02:26:36.231Z,0
2018-04-07T02:27:36.778Z,0
2018-04-07T02:28:37.328Z,0
2018-04-07T02:29:37.874Z,0
2018-04-07T02:30:38.414Z,0
2018-04-07T02:31:38.953Z,0
2018-04-07T02:32:39.491Z,0
2018-04-07T02:33:40.036Z,0
2018-04-07T02:34:40.585Z,0
2018-04-07T02:35:41.124Z,0
2018-04-07T02:36:41.664Z,0
2018-04-07T02:37:42.212Z,0
2018-04-07T02:38:42.756Z,0
2018-04-07T02:39:43.296Z,0
2018-04-07T02:40:43.843Z,0
2018-04-07T02:41:44.392Z,0
2018-04-07T02:42:44.937Z,0
2018-04-07T02:43:45.489Z,0
2018-04-07T02:44:46.029Z,0
2018-04-07T02:45:46.576Z,0
2018-04-07T02:46:47.116Z,0
2018-04-07T02:47:47.661Z,0
2018-04-07T02:48:48.200Z,0
2018-04-07T02:49:48.749Z,0
2018-04-07T02:50:49.294Z,0
2018-04-07T02:51:49.834Z,0
2018-04-07T02:52:50.382Z,0
2018-04-07T02:53:50.920Z,0
2018-04-07T02:54:51.468Z,0
2018-04-07T02:55:52.012Z,0
2018-04-07T02:56:52.555Z,0
2018-04-07T02:57:53.105Z,0
2018-04-07T02:58:53.651Z,0
2018-04-07T02:59:54.191Z,0
2018-04-07T03:00:54.732Z,0
2018-04-07T03:01:55.277Z,0
2018-04-07T03:02:55.825Z,0
2018-04-07T03:03:56.367Z,0
2018-04-07T03:04:56.910Z,0
2018-04-07T03:05:57.463Z,0
2018-04-07T03:06:58.003Z,0
2018-04-07T03:07:58.546Z,0
2018-04-07T03:08:59.105Z,0
2018-04-07T03:09:59.638Z,0
2018-04-07T03:11:00.182Z,0
2018-04-07T03:12:00.722Z,0
2018-04-07T03:13:01.265Z,0
2018-04-07T03:14:01.802Z,0
2018-04-07T03:15:02.344Z,0
2018-04-07T03:16:02.906Z,0
2018-04-07T03:17:03.442Z,0
2018-04-07T03:18:03.981Z,0
2018-04-07T03:19:04.529Z,0
2018-04-07T03:20:05.074Z,0
2018-04-07T03:21:05.618Z,0
2018-04-07T03:22:06.154Z,0
2018-04-07T03:23:06.706Z,0
2018-04-07T03:24:07.243Z,0
2018-04-07T03:25:07.787Z,0
2018-04-07T03:26:08.333Z,0
2018-04-07T03:27:08.873Z,0
2018-04-07T03:28:09.423Z,0
2018-04-07T03:29:09.970Z,0
2018-04-07T03:30:10.519Z,0
2018-04-07T03:31:11.080Z,0
2018-04-07T03:32:11.607Z,0
2018-04-07T03:33:12.158Z,0
2018-04-07T03:34:12.703Z,0
2018-04-07T03:35:13.249Z,0
2018-04-07T03:36:13.797Z,0
2018-04-07T03:37:14.349Z,0
2018-04-07T03:38:14.886Z,0
2018-04-07T03:39:15.435Z,0
2018-04-07T03:40:15.981Z,0
2018-04-07T03:41:16.524Z,0
2018-04-07T03:42:17.060Z,0
2018-04-07T03:43:17.607Z,0
2018-04-07T03:44:18.153Z,0
2018-04-07T03:45:18.697Z,0
2018-04-07T03:46:19.239Z,0
2018-04-07T03:47:19.794Z,0
2018-04-07T03:48:20.337Z,0
2018-04-07T03:49:20.883Z,0
2018-04-07T03:50:21.431Z,0
2018-04-07T03:51:21.982Z,0
2018-04-07T03:52:22.530Z,0
2018-04-07T03:53:23.074Z,0
2018-04-07T03:54:23.620Z,0
2018-04-07T03:55:24.162Z,0
2018-04-07T03:56:24.707Z,0
2018-04-07T03:57:25.246Z,0
2018-04-07T03:58:25.794Z,0
2018-04-07T03:59:26.330Z,0
2018-04-07T04:00:26.876Z,0
2018-04-07T04:01:27.475Z,0
2018-04-07T04:02:28.031Z,0
2018-04-07T04:03:28.573Z,0
2018-04-07T04:04:29.119Z,0
2018-04-07T04:05:29.668Z,0
2018-04-07T04:06:30.220Z,0
2018-04-07T04:07:30.763Z,0
2018-04-07T04:08:31.307Z,0
2018-04-07T04:09:31.850Z,0
2018-04-07T04:10:32.392Z,0
2018-04-07T04:11:32.932Z,0
2018-04-07T04:12:33.483Z,0
2018-04-07T04:13:34.032Z,0
2018-04-07T04:14:34.573Z,0
2018-04-07T04:15:35.116Z,0
2018-04-07T04:16:35.659Z,0
2018-04-07T04:17:36.205Z,0
2018-04-07T04:18:36.748Z,0
2018-04-07T04:19:37.287Z,0
2018-04-07T04:20:37.844Z,0
2018-04-07T04:21:38.370Z,0
2018-04-07T04:22:38.922Z,4
2018-04-07T04:23:39.467Z,4
2018-04-07T04:24:40.007Z,0
2018-04-07T04:25:40.552Z,0
2018-04-07T04:26:41.091Z,4
2018-04-07T04:27:41.636Z,0
2018-04-07T04:28:42.180Z,4
2018-04-07T04:29:42.728Z,8
2018-04-07T04:30:43.276Z,8
2018-04-07T04:31:43.826Z,8
2018-04-07T04:32:44.367Z,8
2018-04-07T04:33:44.914Z,12
2018-04-07T04:34:45.458Z,16
2018-04-07T04:35:45.999Z,16
2018-04-07T04:36:46.543Z,20
2018-04-07T04:37:47.095Z,24
2018-04-07T04:38:47.640Z,28
2018-04-07T04:39:48.183Z,36
2018-04-07T04:40:48.728Z,44
2018-04-07T04:41:49.270Z,52
2018-04-07T04:42:49.821Z,60
2018-04-07T04:43:50.365Z,68
2018-04-07T04:44:50.906Z,76
2018-04-07T04:45:51.451Z,88
2018-04-07T04:46:52.000Z,100
2018-04-07T04:47:52.551Z,112
2018-04-07T04:48:53.098Z,128
2018-04-07T04:49:53.648Z,144
2018-04-07T04:50:54.193Z,160
2018-04-07T04:51:54.739Z,180
2018-04-07T04:52:55.289Z,208
2018-04-07T04:53:55.838Z,232
2018-04-07T04:54:56.378Z,264
2018-04-07T04:55:56.928Z,292
2018-04-07T04:56:57.469Z,324
2018-04-07T04:57:58.021Z,364
2018-04-07T04:58:58.567Z,404
2018-04-07T04:59:59.117Z,448
2018-04-07T05:00:59.668Z,492
2018-04-07T05:02:00.216Z,540
2018-04-07T05:03:00.759Z,588
2018-04-07T05:04:01.307Z,644
2018-04-07T05:05:01.858Z,700
2018-04-07T05:06:02.404Z,768
2018-04-07T05:07:02.954Z,832
2018-04-07T05:08:03.496Z,900
2018-04-07T05:09:04.047Z,972
2018-04-07T05:10:04.595Z,1044
2018-04-07T05:11:05.192Z,1120
2018-04-07T05:12:05.790Z,1204
2018-04-07T05:13:06.330Z,1284
2018-04-07T05:14:06.881Z,1372
2018-04-07T05:15:07.436Z,1460
2018-04-07T05:16:07.983Z,1548
2018-04-07T05:17:08.539Z,1632
2018-04-07T05:18:09.091Z,1716
2018-04-07T05:19:09.631Z,1804
2018-04-07T05:20:10.189Z,1904
2018-04-07T05:21:10.733Z,2016
2018-04-07T05:22:11.340Z,2136
2018-04-07T05:23:11.848Z,2264
2018-04-07T05:24:12.379Z,2392
2018-04-07T05:25:12.939Z,2520
2018-04-07T05:26:13.485Z,2632
2018-04-07T05:27:14.043Z,2752
2018-04-07T05:28:14.590Z,2920
2018-04-07T05:29:15.144Z,3088
2018-04-07T05:30:15.701Z,3260
2018-04-07T05:31:16.252Z,3440
2018-04-07T05:32:16.798Z,3604
2018-04-07T05:33:17.350Z,3772
2018-04-07T05:34:17.893Z,4116
2018-04-07T05:35:18.448Z,4568
2018-04-07T05:36:19.012Z,4904
2018-04-07T05:37:19.559Z,5160
2018-04-07T05:38:20.119Z,5316
2018-04-07T05:39:20.678Z,5456
2018-04-07T05:40:21.225Z,5588
2018-04-07T05:41:21.784Z,5716
2018-04-07T05:42:22.338Z,5808
2018-04-07T05:43:22.897Z,5972
2018-04-07T05:44:23.455Z,6176
2018-04-07T05:45:24.013Z,6392
2018-04-07T05:46:24.571Z,6740
2018-04-07T05:47:25.123Z,7012
2018-04-07T05:48:25.677Z,7268
2018-04-07T05:49:26.232Z,7516
2018-04-07T05:50:26.793Z,7872
2018-04-07T05:51:27.349Z,8004
2018-04-07T05:52:27.907Z,7772
2018-04-07T05:53:28.465Z,8012
2018-04-07T05:54:29.025Z,8680
2018-04-07T05:55:29.585Z,8852
2018-04-07T05:56:30.142Z,9052
2018-04-07T05:57:30.702Z,9404
2018-04-07T05:58:31.263Z,9676
2018-04-07T05:59:31.824Z,9772
2018-04-07T06:00:32.385Z,9896
2018-04-07T06:01:32.944Z,10040
2018-04-07T06:02:33.505Z,10428
2018-04-07T06:03:34.067Z,10304
2018-04-07T06:04:34.630Z,9368
2018-04-07T06:05:35.186Z,9288
2018-04-07T06:06:35.751Z,10408
2018-04-07T06:07:36.307Z,11324
2018-04-07T06:08:36.869Z,11672
2018-04-07T06:09:37.435Z,11648
2018-04-07T06:10:37.997Z,11512
2018-04-07T06:11:38.557Z,11680
2018-04-07T06:12:39.124Z,11416
2018-04-07T06:13:39.686Z,11552
2018-04-07T06:14:40.242Z,11812
2018-04-07T06:15:40.804Z,11232
2018-04-07T06:16:41.367Z,10696
2018-04-07T06:17:41.927Z,11828
2018-04-07T06:18:42.486Z,13420
2018-04-07T06:19:43.046Z,14496
2018-04-07T06:20:43.604Z,14840
2018-04-07T06:21:44.168Z,14636
2018-04-07T06:22:44.779Z,15856
2018-04-07T06:23:45.307Z,16292
2018-04-07T06:24:45.873Z,16152
2018-04-07T06:25:46.433Z,13836
2018-04-07T06:26:47.000Z,11940
2018-04-07T06:27:47.564Z,14160
2018-04-07T06:28:48.133Z,16900
2018-04-07T06:29:48.674Z,18144
2018-04-07T06:30:49.236Z,18112
2018-04-07T06:31:49.792Z,18080
2018-04-07T06:32:50.353Z,16692
2018-04-07T06:33:50.914Z,16092
2018-04-07T06:34:51.485Z,16068
2018-04-07T06:35:52.035Z,16396
2018-04-07T06:36:52.599Z,16732
2018-04-07T06:37:53.153Z,17172
2018-04-07T06:38:53.716Z,16912
2018-04-07T06:39:54.280Z,16360
2018-04-07T06:40:54.844Z,17336
2018-04-07T06:41:55.407Z,18336
2018-04-07T06:42:55.976Z,17000
2018-04-07T06:43:56.533Z,15272
2018-04-07T06:44:57.165Z,18624
2018-04-07T06:45:57.727Z,19776
2018-04-07T06:46:58.287Z,21344
2018-04-07T06:47:58.854Z,21472
2018-04-07T06:48:59.415Z,21440
2018-04-07T06:49:59.983Z,20768
2018-04-07T06:51:00.545Z,20704
2018-04-07T06:52:01.108Z,20832
2018-04-07T06:53:01.676Z,21632
2018-04-07T06:54:02.242Z,22208
2018-04-07T06:55:02.859Z,21920
2018-04-07T06:56:03.371Z,20448
2018-04-07T06:57:03.942Z,20768
2018-04-07T06:58:04.506Z,22144
2018-04-07T06:59:05.069Z,20672
2018-04-07T07:00:05.637Z,18880
2018-04-07T07:01:06.204Z,19904
2018-04-07T07:02:06.772Z,20576
2018-04-07T07:03:07.337Z,20512
2018-04-07T07:04:07.904Z,20544
2018-04-07T07:05:08.477Z,21376
2018-04-07T07:06:09.042Z,20768
2018-04-07T07:07:09.601Z,20896
2018-04-07T07:08:10.162Z,22944
2018-04-07T07:09:10.727Z,22688
2018-04-07T07:10:11.290Z,20736
2018-04-07T07:11:11.874Z,21216
2018-04-07T07:12:12.420Z,21472
2018-04-07T07:13:12.976Z,22176
2018-04-07T07:14:13.537Z,23424
2018-04-07T07:15:14.096Z,23488
2018-04-07T07:16:14.656Z,25216
2018-04-07T07:17:15.219Z,25696
2018-04-07T07:18:15.786Z,24160
2018-04-07T07:19:16.385Z,23648
2018-04-07T07:20:16.906Z,23136
2018-04-07T07:21:17.472Z,23200
2018-04-07T07:22:18.056Z,24096
2018-04-07T07:23:18.617Z,23584
2018-04-07T07:24:19.184Z,23264
2018-04-07T07:25:19.738Z,22912
2018-04-07T07:26:20.298Z,22464
2018-04-07T07:27:20.865Z,22688
2018-04-07T07:28:21.427Z,23552
2018-04-07T07:29:21.992Z,23840
2018-04-07T07:30:22.560Z,24032
2018-04-07T07:31:23.126Z,24256
2018-04-07T07:32:23.690Z,24352
2018-04-07T07:33:24.263Z,24416
2018-04-07T07:34:24.814Z,23648
2018-04-07T07:35:25.373Z,23520
2018-04-07T07:36:25.941Z,24000
2018-04-07T07:37:26.501Z,24192
2018-04-07T07:38:27.065Z,23840
2018-04-07T07:39:27.625Z,23968
2018-04-07T07:40:28.192Z,23872
2018-04-07T07:41:28.752Z,24096
2018-04-07T07:42:29.313Z,23936
2018-04-07T07:43:29.878Z,24544
2018-04-07T07:44:30.439Z,25568
2018-04-07T07:45:31.002Z,26560
2018-04-07T07:46:31.568Z,26976
2018-04-07T07:47:32.114Z,27712
2018-04-07T07:48:32.676Z,28992
2018-04-07T07:49:33.236Z,29920
2018-04-07T07:50:33.799Z,30432
2018-04-07T07:51:34.362Z,31232
2018-04-07T07:52:34.921Z,32736
2018-04-07T07:53:35.485Z,33664
2018-04-07T07:54:36.047Z,33600
2018-04-07T07:55:36.612Z,34688
2018-04-07T07:56:37.177Z,34592
2018-04-07T07:57:37.738Z,34368
2018-04-07T07:58:38.308Z,34592
2018-04-07T07:59:38.870Z,33344
2018-04-07T08:00:39.437Z,33504
2018-04-07T08:01:40.000Z,34080
2018-04-07T08:02:40.560Z,34688
2018-04-07T08:03:41.116Z,35904
2018-04-07T08:04:41.681Z,36896
2018-04-07T08:05:42.250Z,37856
2018-04-07T08:06:42.808Z,38336
2018-04-07T08:07:43.374Z,38656
2018-04-07T08:08:43.939Z,39520
2018-04-07T08:09:44.504Z,42208
2018-04-07T08:10:45.064Z,42240
2018-04-07T08:11:45.634Z,42272
2018-04-07T08:12:46.197Z,41536
2018-04-07T08:13:46.764Z,42496
2018-04-07T08:14:47.329Z,42944
2018-04-07T08:15:47.893Z,43584
2018-04-07T08:16:48.461Z,44288
2018-04-07T08:17:49.023Z,46208
2018-04-07T08:18:49.588Z,47808
2018-04-07T08:19:50.155Z,46720
2018-04-07T08:20:50.776Z,46784
2018-04-07T08:21:51.286Z,47296
2018-04-07T08:22:51.856Z,48928
2018-04-07T08:23:52.428Z,50080
2018-04-07T08:24:52.994Z,49600
2018-04-07T08:25:53.558Z,49856
2018-04-07T08:26:54.134Z,47136
2018-04-07T08:27:54.703Z,48832
2018-04-07T08:28:55.262Z,49216
2018-04-07T08:29:55.852Z,49376
2018-04-07T08:30:56.392Z,45504
2018-04-07T08:31:56.958Z,44736
2018-04-07T08:32:57.526Z,43296
2018-04-07T08:33:58.087Z,42848
2018-04-07T08:34:58.654Z,43456
2018-04-07T08:35:59.215Z,42368
2018-04-07T08:36:59.779Z,41216
2018-04-07T08:38:00.341Z,39488
2018-04-07T08:39:00.898Z,40096
2018-04-07T08:40:01.460Z,40064
2018-04-07T08:41:02.026Z,39040
2018-04-07T08:42:02.591Z,40192
2018-04-07T08:43:03.155Z,41632
2018-04-07T08:44:03.724Z,42880
2018-04-07T08:45:04.291Z,44064
2018-04-07T08:46:04.855Z,42816
2018-04-07T08:47:05.425Z,46112
2018-04-07T08:48:06.081Z,47200
2018-04-07T08:49:06.655Z,46656
2018-04-07T08:50:07.226Z,49536
2018-04-07T08:51:07.829Z,50176
2018-04-07T08:52:08.343Z,48672
2018-04-07T08:53:08.914Z,48512
2018-04-07T08:54:09.462Z,45216
2018-04-07T08:55:10.028Z,43328
2018-04-07T08:56:10.596Z,42688
2018-04-07T08:57:11.164Z,45536
2018-04-07T08:58:11.730Z,47264
2018-04-07T08:59:12.295Z,47296
2018-04-07T09:00:12.862Z,45920
2018-04-07T09:01:13.428Z,51552
2018-04-07T09:02:13.987Z,51936
2018-04-07T09:03:14.553Z,49184
2018-04-07T09:04:15.120Z,50976
2018-04-07T09:05:15.679Z,52640
2018-04-07T09:06:16.241Z,52352
2018-04-07T09:07:16.800Z,49632
2018-04-07T09:08:17.358Z,51072
2018-04-07T09:09:17.932Z,52192
2018-04-07T09:10:18.511Z,52928
2018-04-07T09:11:19.079Z,47584
2018-04-07T09:12:19.682Z,44352
2018-04-07T09:13:20.201Z,47616
2018-04-07T09:14:20.766Z,49824
2018-04-07T09:15:21.370Z,49888
2018-04-07T09:16:21.909Z,51072
2018-04-07T09:17:22.498Z,51200
2018-04-07T09:18:23.031Z,50752
2018-04-07T09:19:23.610Z,46880
2018-04-07T09:20:24.172Z,46752
2018-04-07T09:21:24.732Z,47296
2018-04-07T09:22:25.296Z,51456
2018-04-07T09:23:25.859Z,54496
2018-04-07T09:24:26.430Z,53216
2018-04-07T09:25:26.989Z,58528
2018-04-07T09:26:27.560Z,56736
2018-04-07T09:27:28.126Z,54656
2018-04-07T09:28:28.689Z,59104
2018-04-07T09:29:29.243Z,68864
2018-04-07T09:30:29.806Z,70752
2018-04-07T09:31:30.373Z,65312
2018-04-07T09:32:30.934Z,62048
2018-04-07T09:33:31.501Z,61120
2018-04-07T09:34:32.062Z,56768
2018-04-07T09:35:32.628Z,55968
2018-04-07T09:36:33.192Z,59424
2018-04-07T09:37:33.757Z,55456
2018-04-07T09:38:34.326Z,53824
2018-04-07T09:39:34.893Z,63104
2018-04-07T09:40:35.457Z,61440
2018-04-07T09:41:36.023Z,63520
2018-04-07T09:42:36.583Z,71200
2018-04-07T09:43:37.152Z,67520
2018-04-07T09:44:37.742Z,72960
2018-04-07T09:45:38.299Z,74912
2018-04-07T09:46:38.869Z,73856
2018-04-07T09:47:39.435Z,73760
2018-04-07T09:48:40.010Z,73312
2018-04-07T09:49:40.572Z,70752
2018-04-07T09:50:41.146Z,70528
2018-04-07T09:51:41.707Z,69888
2018-04-07T09:52:42.265Z,65792
2018-04-07T09:53:42.833Z,69344
2018-04-07T09:54:43.398Z,74080
2018-04-07T09:55:43.961Z,74016
2018-04-07T09:56:44.531Z,72544
2018-04-07T09:57:45.097Z,69632
2018-04-07T09:58:45.666Z,70944
2018-04-07T09:59:46.237Z,71552
2018-04-07T10:00:46.802Z,72288
2018-04-07T10:01:47.371Z,78208
2018-04-07T10:02:47.939Z,83168
2018-04-07T10:03:48.509Z,82880
2018-04-07T10:04:49.077Z,81376
2018-04-07T10:05:49.633Z,76736
2018-04-07T10:06:50.197Z,78304
2018-04-07T10:07:50.768Z,79072
2018-04-07T10:08:51.333Z,71552
2018-04-07T10:09:51.953Z,60416
2018-04-07T10:10:52.470Z,72640
2018-04-07T10:11:53.042Z,72672
2018-04-07T10:12:53.734Z,64512
2018-04-07T10:13:54.305Z,53696
2018-04-07T10:14:54.894Z,17016
2018-04-07T10:15:55.452Z,49344
2018-04-07T10:16:56.012Z,45792
2018-04-07T10:17:56.583Z,45088
2018-04-07T10:18:57.203Z,46240
2018-04-07T10:19:57.779Z,43168
2018-04-07T10:20:58.327Z,44416
2018-04-07T10:21:58.884Z,49792
2018-04-07T10:22:59.450Z,53760
2018-04-07T10:24:00.019Z,51264
2018-04-07T10:25:00.651Z,61504
2018-04-07T10:26:01.195Z,75232
2018-04-07T10:27:01.760Z,76448
2018-04-07T10:28:02.330Z,77632
2018-04-07T10:29:02.895Z,64448
2018-04-07T10:30:03.459Z,60640
2018-04-07T10:31:04.021Z,66080
2018-04-07T10:32:04.585Z,79232
2018-04-07T10:33:05.169Z,85536
2018-04-07T10:34:05.750Z,86688
2018-04-07T10:35:06.292Z,83776
2018-04-07T10:36:06.863Z,83776
2018-04-07T10:37:07.439Z,79744
2018-04-07T10:38:08.006Z,77824
2018-04-07T10:39:08.570Z,82848
2018-04-07T10:40:09.150Z,88384
2018-04-07T10:41:09.689Z,88384
2018-04-07T10:42:10.251Z,86432
2018-04-07T10:43:10.840Z,89984
2018-04-07T10:44:11.394Z,88000
2018-04-07T10:45:11.971Z,84544
2018-04-07T10:46:12.553Z,85696
2018-04-07T10:47:13.106Z,86400
2018-04-07T10:48:13.670Z,92352
2018-04-07T10:49:14.230Z,89792
2018-04-07T10:50:14.809Z,94080
2018-04-07T10:51:15.375Z,94208
2018-04-07T10:52:15.944Z,91328
2018-04-07T10:53:16.507Z,89760
2018-04-07T10:54:17.119Z,88576
2018-04-07T10:55:17.656Z,82528
2018-04-07T10:56:18.219Z,85568
2018-04-07T10:57:18.792Z,89280
2018-04-07T10:58:19.354Z,92096
2018-04-07T10:59:19.924Z,88768
2018-04-07T11:00:20.487Z,85088
2018-04-07T11:01:21.077Z,84448
2018-04-07T11:02:21.658Z,81216
2018-04-07T11:03:22.260Z,83328
2018-04-07T11:04:22.816Z,85888
2018-04-07T11:05:23.359Z,82208
2018-04-07T11:06:23.925Z,88032
2018-04-07T11:07:24.496Z,85024
2018-04-07T11:08:25.060Z,82816
2018-04-07T11:09:25.629Z,82560
2018-04-07T11:10:26.196Z,74752
2018-04-07T11:11:26.803Z,74752
2018-04-07T11:12:27.323Z,88416
2018-04-07T11:13:27.890Z,98752
2018-04-07T11:14:28.463Z,102624
2018-04-07T11:29:19.054Z,94560
2018-04-07T11:30:19.619Z,81312
2018-04-07T11:31:20.188Z,94400
2018-04-07T11:32:20.762Z,90656
2018-04-07T11:33:21.326Z,87648
2018-04-07T11:34:21.891Z,87136
2018-04-07T11:35:22.478Z,84448
2018-04-07T11:36:23.049Z,84768
2018-04-07T11:37:23.622Z,90208
2018-04-07T11:38:24.189Z,91392
2018-04-07T11:39:24.749Z,89184
2018-04-07T11:40:25.324Z,83552
2018-04-07T11:41:25.892Z,82016
2018-04-07T11:42:26.459Z,84128
2018-04-07T11:43:27.083Z,86464
2018-04-07T11:44:27.648Z,89344
2018-04-07T11:45:28.221Z,91360
2018-04-07T11:46:28.786Z,89184
2018-04-07T11:47:29.354Z,88928
2018-04-07T11:48:29.924Z,90784
2018-04-07T11:49:30.485Z,93568
2018-04-07T11:50:31.061Z,93696
2018-04-07T11:51:31.631Z,93952
2018-04-07T11:52:32.205Z,92000
2018-04-07T11:53:32.765Z,91520
2018-04-07T11:54:33.338Z,90048
2018-04-07T11:55:33.902Z,88384
2018-04-07T11:56:34.479Z,88992
2018-04-07T11:57:35.040Z,88352
2018-04-07T11:58:35.618Z,85696
2018-04-07T11:59:36.189Z,84672
2018-04-07T12:00:36.747Z,87136
2018-04-07T12:01:37.362Z,90976
2018-04-07T12:02:37.891Z,94720
2018-04-07T12:03:38.468Z,97920
2018-04-07T12:04:39.029Z,96544
2018-04-07T12:05:39.594Z,91296
2018-04-07T12:06:40.169Z,88096
2018-04-07T12:07:40.730Z,88576
2018-04-07T12:08:41.301Z,92384
2018-04-07T12:09:41.869Z,97408
2018-04-07T12:10:42.441Z,101824
2018-04-07T12:11:43.032Z,105824
2018-04-07T12:12:43.580Z,104672
2018-04-07T12:13:44.148Z,101248
2018-04-07T12:29:50.220Z,88160
2018-04-07T12:30:50.788Z,86496
2018-04-07T12:31:51.350Z,84192
2018-04-07T12:32:51.917Z,83712
2018-04-07T12:33:52.541Z,86304
2018-04-07T12:34:53.058Z,90144
2018-04-07T12:35:53.622Z,90592
2018-04-07T12:36:54.187Z,88640
2018-04-07T12:37:54.755Z,87136
2018-04-07T12:38:55.333Z,84640
2018-04-07T12:39:55.896Z,85088
2018-04-07T12:40:56.468Z,86080
2018-04-07T12:41:57.035Z,86208
2018-04-07T12:42:57.616Z,80896
2018-04-07T12:43:58.176Z,77632
2018-04-07T12:44:58.737Z,78272
2018-04-07T12:45:59.308Z,79008
2018-04-07T12:46:59.881Z,80320
2018-04-07T12:48:00.451Z,82304
2018-04-07T12:49:01.023Z,84096
2018-04-07T12:50:01.599Z,82528
2018-04-07T12:51:02.174Z,80320
2018-04-07T12:52:02.739Z,81888
2018-04-07T12:53:03.314Z,84256
2018-04-07T12:54:03.886Z,84800
2018-04-07T12:55:04.458Z,86176
2018-04-07T12:56:05.033Z,87008
2018-04-07T12:57:05.602Z,84448
2018-04-07T12:58:06.207Z,82272
2018-04-07T12:59:06.744Z,81248
2018-04-07T13:00:07.321Z,80928
2018-04-07T13:01:07.889Z,80000
2018-04-07T13:19:44.886Z,81248
2018-04-07T13:20:45.460Z,83680
2018-04-07T13:21:46.027Z,84096
2018-04-07T13:22:46.598Z,82464
2018-04-07T13:23:47.174Z,79552
2018-04-07T13:24:47.740Z,78240
2018-04-07T13:25:48.314Z,76128
2018-04-07T13:26:48.890Z,75008
2018-04-07T13:27:49.459Z,76704
2018-04-07T13:28:50.033Z,78304
2018-04-07T13:29:50.600Z,78560
2018-04-07T13:30:51.174Z,74368
2018-04-07T13:31:51.744Z,70816
2018-04-07T13:32:52.309Z,68640
2018-04-07T13:33:52.887Z,66752
2018-04-07T13:34:53.456Z,65760
2018-04-07T13:35:54.027Z,65408
2018-04-07T13:36:54.596Z,67584
2018-04-07T13:37:55.169Z,69216
2018-04-07T13:38:55.741Z,71872
2018-04-07T13:39:56.311Z,74688
2018-04-07T13:40:56.881Z,76256
2018-04-07T13:41:57.456Z,73056
2018-04-07T13:42:58.027Z,70336
2018-04-07T13:43:58.594Z,69728
2018-04-07T13:44:59.168Z,68512
2018-04-07T13:45:59.733Z,69024
2018-04-07T13:47:00.302Z,71040
2018-04-07T13:48:00.878Z,71968
2018-04-07T14:06:37.861Z,60352
2018-04-07T14:07:38.422Z,59744
2018-04-07T14:08:38.993Z,60128
2018-04-07T14:09:39.554Z,60064
2018-04-07T14:10:40.141Z,59936
2018-04-07T14:11:40.699Z,61504
2018-04-07T14:12:41.273Z,62144
2018-04-07T14:13:41.965Z,62368
2018-04-07T14:14:42.530Z,60608
2018-04-07T14:15:43.097Z,58720
2018-04-07T14:16:43.703Z,57472
2018-04-07T14:17:44.235Z,57536
2018-04-07T14:18:44.809Z,58560
2018-04-07T14:19:45.375Z,59584
2018-04-07T14:20:45.942Z,59392
2018-04-07T14:21:46.507Z,58944
2018-04-07T14:22:47.081Z,58368
2018-04-07T14:23:47.652Z,57760
2018-04-07T14:24:48.224Z,57216
2018-04-07T14:25:48.798Z,54720
2018-04-07T14:26:49.364Z,54432
2018-04-07T14:27:49.933Z,54400
2018-04-07T14:28:50.505Z,54016
2018-04-07T14:29:51.079Z,54752
2018-04-07T14:30:51.643Z,55200
2018-04-07T14:31:52.206Z,55232
2018-04-07T14:32:52.772Z,53248
2018-04-07T14:33:53.347Z,50240
2018-04-07T14:34:53.921Z,48128
2018-04-07T14:35:54.483Z,47936
2018-04-07T14:53:20.758Z,43360
2018-04-07T14:54:21.326Z,41504
2018-04-07T14:55:21.900Z,40768
2018-04-07T14:56:22.471Z,41824
2018-04-07T14:57:23.034Z,42688
2018-04-07T14:58:23.599Z,42592
2018-04-07T14:59:24.174Z,41056
2018-04-07T15:00:24.738Z,37984